San Francisco, California
Traffic Map
Current Weather Conditions
San Francisco, California
Broken Clouds
Broken Clouds
59°
Feels Like: 59°
Wind Chill: 59° Ceiling: 20000
Heat Index: 59° Visibility: 10mi
Dew Point: 44° Wind: 0mph
Humidity: 58% Direction: ° ()
Pressure: 30.08in Gusts: 0mph
Raw Report DataKSFO 132156Z 00000KT 10SM BKN200 15/07 A3008 RMK AO2 SLP186 T01500067
Traffic Incident Summary
Active as of:
Severity:
Category:
InformationThere was an issue retrieving the traffic information for this location. Please try a different location or try again shortly.
Advertisements